sensor_id;sensor_type;location;lat;lon;timestamp;pressure;altitude;pressure_sealevel;temperature;humidity
1029;BME280;503;48.120;11.488;2022-10-16T00:02:05;95409.00;;;16.72;67.54
1029;BME280;503;48.120;11.488;2022-10-16T00:04:30;95412.00;;;16.71;67.57
1029;BME280;503;48.120;11.488;2022-10-16T00:06:55;95419.75;;;16.72;67.75
1029;BME280;503;48.120;11.488;2022-10-16T00:09:20;95418.97;;;16.72;67.75
1029;BME280;503;48.120;11.488;2022-10-16T00:11:45;95417.72;;;16.69;67.73
1029;BME280;503;48.120;11.488;2022-10-16T00:14:12;95421.84;;;16.67;67.81
1029;BME280;503;48.120;11.488;2022-10-16T00:16:37;95418.75;;;16.64;67.99
1029;BME280;503;48.120;11.488;2022-10-16T00:19:03;95419.88;;;16.63;67.75
1029;BME280;503;48.120;11.488;2022-10-16T00:21:29;95415.16;;;16.60;67.79
1029;BME280;503;48.120;11.488;2022-10-16T00:23:56;95412.03;;;16.58;68.16
1029;BME280;503;48.120;11.488;2022-10-16T00:26:21;95416.59;;;16.58;67.91
1029;BME280;503;48.120;11.488;2022-10-16T00:28:47;95424.22;;;16.56;68.01
1029;BME280;503;48.120;11.488;2022-10-16T00:31:13;95425.00;;;16.56;68.12
1029;BME280;503;48.120;11.488;2022-10-16T00:33:39;95430.00;;;16.58;68.15
1029;BME280;503;48.120;11.488;2022-10-16T00:36:05;95417.72;;;16.57;67.97
1029;BME280;503;48.120;11.488;2022-10-16T00:38:31;95419.28;;;16.58;68.10
1029;BME280;503;48.120;11.488;2022-10-16T00:40:56;95408.53;;;16.58;68.16
1029;BME280;503;48.120;11.488;2022-10-16T00:46:00;95418.50;;;16.57;68.38
1029;BME280;503;48.120;11.488;2022-10-16T00:48:25;95423.88;;;16.57;68.94
1029;BME280;503;48.120;11.488;2022-10-16T00:50:51;95427.44;;;16.61;68.93
1029;BME280;503;48.120;11.488;2022-10-16T00:53:16;95424.78;;;16.61;69.02
1029;BME280;503;48.120;11.488;2022-10-16T00:55:42;95424.88;;;16.65;68.85
1029;BME280;503;48.120;11.488;2022-10-16T00:58:07;95414.28;;;16.69;68.71
1029;BME280;503;48.120;11.488;2022-10-16T01:00:33;95417.72;;;16.69;68.52
1029;BME280;503;48.120;11.488;2022-10-16T01:02:59;95428.00;;;16.67;68.89
1029;BME280;503;48.120;11.488;2022-10-16T01:05:42;95431.16;;;16.69;68.77
1029;BME280;503;48.120;11.488;2022-10-16T01:08:13;95429.47;;;16.64;68.78
1029;BME280;503;48.120;11.488;2022-10-16T01:13:18;95438.75;;;16.67;68.71
1029;BME280;503;48.120;11.488;2022-10-16T01:15:55;95446.03;;;16.67;68.80
1029;BME280;503;48.120;11.488;2022-10-16T01:25:59;95444.84;;;16.76;68.03
1029;BME280;503;48.120;11.488;2022-10-16T01:31:17;95442.94;;;16.77;68.09
1029;BME280;503;48.120;11.488;2022-10-16T01:33:44;95439.47;;;16.76;68.08
1029;BME280;503;48.120;11.488;2022-10-16T01:36:12;95441.50;;;16.79;67.92
1029;BME280;503;48.120;11.488;2022-10-16T01:38:38;95446.97;;;16.83;67.71
1029;BME280;503;48.120;11.488;2022-10-16T01:41:07;95444.63;;;16.81;67.55
1029;BME280;503;48.120;11.488;2022-10-16T01:43:35;95442.28;;;16.80;67.64
1029;BME280;503;48.120;11.488;2022-10-16T01:46:02;95439.25;;;16.81;67.54
1029;BME280;503;48.120;11.488;2022-10-16T01:48:27;95439.59;;;16.80;67.47
1029;BME280;503;48.120;11.488;2022-10-16T01:50:56;95427.72;;;16.81;67.59
1029;BME280;503;48.120;11.488;2022-10-16T01:53:22;95433.53;;;16.83;67.67
1029;BME280;503;48.120;11.488;2022-10-16T01:55:48;95431.31;;;16.85;67.45
1029;BME280;503;48.120;11.488;2022-10-16T01:58:14;95422.56;;;16.88;67.50
1029;BME280;503;48.120;11.488;2022-10-16T02:00:40;95420.09;;;16.95;67.38
1029;BME280;503;48.120;11.488;2022-10-16T02:03:07;95417.41;;;16.95;67.35
1029;BME280;503;48.120;11.488;2022-10-16T02:05:40;95420.09;;;16.95;67.32
1029;BME280;503;48.120;11.488;2022-10-16T02:08:08;95427.81;;;16.97;67.27
1029;BME280;503;48.120;11.488;2022-10-16T02:10:34;95422.78;;;16.95;67.12
1029;BME280;503;48.120;11.488;2022-10-16T02:13:02;95416.94;;;16.93;67.06
1029;BME280;503;48.120;11.488;2022-10-16T02:15:28;95424.94;;;16.89;67.23
1029;BME280;503;48.120;11.488;2022-10-16T02:17:54;95414.41;;;16.84;67.44
1029;BME280;503;48.120;11.488;2022-10-16T02:20:20;95414.28;;;16.81;67.74
1029;BME280;503;48.120;11.488;2022-10-16T02:22:48;95427.72;;;16.81;67.95
1029;BME280;503;48.120;11.488;2022-10-16T02:25:19;95425.38;;;16.79;67.85
1029;BME280;503;48.120;11.488;2022-10-16T02:28:08;95417.31;;;16.79;67.67
1029;BME280;503;48.120;11.488;2022-10-16T02:30:33;95422.91;;;16.74;67.81
1029;BME280;503;48.120;11.488;2022-10-16T02:33:01;95428.38;;;16.78;67.82
1029;BME280;503;48.120;11.488;2022-10-16T02:35:29;95424.47;;;16.75;67.71
1029;BME280;503;48.120;11.488;2022-10-16T02:37:56;95432.19;;;16.77;67.62
1029;BME280;503;48.120;11.488;2022-10-16T02:40:22;95431.75;;;16.75;67.32
1029;BME280;503;48.120;11.488;2022-10-16T02:42:49;95432.41;;;16.72;67.62
1029;BME280;503;48.120;11.488;2022-10-16T02:45:15;95443.81;;;16.69;67.75
1029;BME280;503;48.120;11.488;2022-10-16T02:47:40;95437.63;;;16.68;67.52
1029;BME280;503;48.120;11.488;2022-10-16T02:50:05;95442.56;;;16.66;67.49
1029;BME280;503;48.120;11.488;2022-10-16T02:52:31;95449.72;;;16.62;67.78
1029;BME280;503;48.120;11.488;2022-10-16T02:54:56;95447.38;;;16.60;67.79
1029;BME280;503;48.120;11.488;2022-10-16T02:57:21;95436.19;;;16.58;67.63
1029;BME280;503;48.120;11.488;2022-10-16T02:59:46;95442.56;;;16.54;67.45
1029;BME280;503;48.120;11.488;2022-10-16T03:02:12;95444.00;;;16.51;67.82
1029;BME280;503;48.120;11.488;2022-10-16T03:04:37;95437.72;;;16.47;67.87
1029;BME280;503;48.120;11.488;2022-10-16T03:07:03;95438.84;;;16.46;67.73
1029;BME280;503;48.120;11.488;2022-10-16T03:09:28;95434.59;;;16.45;67.77
1029;BME280;503;48.120;11.488;2022-10-16T03:11:53;95443.66;;;16.41;67.97
1029;BME280;503;48.120;11.488;2022-10-16T03:14:18;95440.97;;;16.41;67.96
1029;BME280;503;48.120;11.488;2022-10-16T03:16:43;95433.47;;;16.46;67.77
1029;BME280;503;48.120;11.488;2022-10-16T03:19:09;95436.28;;;16.50;67.71
1029;BME280;503;48.120;11.488;2022-10-16T03:21:34;95443.78;;;16.56;67.73
1029;BME280;503;48.120;11.488;2022-10-16T03:23:59;95443.34;;;16.54;68.03
1029;BME280;503;48.120;11.488;2022-10-16T03:26:24;95439.75;;;16.62;67.86
1029;BME280;503;48.120;11.488;2022-10-16T03:28:49;95438.25;;;16.74;67.68
1029;BME280;503;48.120;11.488;2022-10-16T03:31:15;95440.94;;;16.86;67.55
1029;BME280;503;48.120;11.488;2022-10-16T03:33:40;95436.44;;;16.90;66.80
1029;BME280;503;48.120;11.488;2022-10-16T03:36:05;95440.38;;;17.05;67.04
1029;BME280;503;48.120;11.488;2022-10-16T03:38:31;95443.38;;;17.15;66.43
1029;BME280;503;48.120;11.488;2022-10-16T03:40:57;95440.56;;;17.12;65.68
1029;BME280;503;48.120;11.488;2022-10-16T03:43:22;95452.53;;;17.27;66.10
1029;BME280;503;48.120;11.488;2022-10-16T03:45:47;95458.22;;;17.37;65.85
1029;BME280;503;48.120;11.488;2022-10-16T03:48:12;95455.06;;;17.48;65.37
1029;BME280;503;48.120;11.488;2022-10-16T03:50:38;95456.16;;;17.59;65.40
1029;BME280;503;48.120;11.488;2022-10-16T03:53:03;95453.56;;;17.62;64.46
1029;BME280;503;48.120;11.488;2022-10-16T03:55:28;95439.69;;;17.73;64.81
1029;BME280;503;48.120;11.488;2022-10-16T03:57:53;95438.97;;;17.76;64.04
1029;BME280;503;48.120;11.488;2022-10-16T04:00:19;95446.13;;;17.84;64.24
1029;BME280;503;48.120;11.488;2022-10-16T04:02:44;95452.06;;;17.89;64.04
1029;BME280;503;48.120;11.488;2022-10-16T04:05:09;95448.69;;;17.92;63.85
1029;BME280;503;48.120;11.488;2022-10-16T04:07:34;95443.94;;;17.74;63.31
1029;BME280;503;48.120;11.488;2022-10-16T04:10:00;95446.00;;;17.92;63.50
1029;BME280;503;48.120;11.488;2022-10-16T04:12:26;95444.88;;;17.93;63.08
1029;BME280;503;48.120;11.488;2022-10-16T04:14:51;95438.22;;;18.03;63.16
1029;BME280;503;48.120;11.488;2022-10-16T04:17:16;95439.31;;;17.86;63.11
1029;BME280;503;48.120;11.488;2022-10-16T04:19:41;95448.22;;;17.90;63.28
1029;BME280;503;48.120;11.488;2022-10-16T04:22:06;95442.03;;;18.02;63.11
1029;BME280;503;48.120;11.488;2022-10-16T04:24:32;95445.31;;;18.11;62.88
1029;BME280;503;48.120;11.488;2022-10-16T04:26:57;95446.13;;;18.12;62.70
1029;BME280;503;48.120;11.488;2022-10-16T04:29:22;95451.69;;;18.19;62.36
1029;BME280;503;48.120;11.488;2022-10-16T04:31:47;95450.22;;;18.22;62.42
1029;BME280;503;48.120;11.488;2022-10-16T04:34:13;95451.16;;;18.13;61.86
1029;BME280;503;48.120;11.488;2022-10-16T04:36:38;95458.28;;;18.22;61.95
1029;BME280;503;48.120;11.488;2022-10-16T04:39:03;95451.88;;;18.26;62.31
1029;BME280;503;48.120;11.488;2022-10-16T04:41:28;95450.84;;;18.31;61.85
1029;BME280;503;48.120;11.488;2022-10-16T04:43:53;95452.06;;;18.33;61.92
1029;BME280;503;48.120;11.488;2022-10-16T04:46:19;95456.44;;;18.38;61.83
1029;BME280;503;48.120;11.488;2022-10-16T04:48:44;95451.56;;;18.43;61.77
1029;BME280;503;48.120;11.488;2022-10-16T04:51:09;95448.94;;;18.47;61.51
1029;BME280;503;48.120;11.488;2022-10-16T04:53:34;95442.00;;;18.46;61.24
1029;BME280;503;48.120;11.488;2022-10-16T04:56:00;95439.41;;;18.50;61.06
1029;BME280;503;48.120;11.488;2022-10-16T04:58:25;95445.16;;;18.48;60.84
1029;BME280;503;48.120;11.488;2022-10-16T05:00:50;95447.22;;;18.55;60.91
1029;BME280;503;48.120;11.488;2022-10-16T05:03:15;95453.81;;;18.57;60.89
1029;BME280;503;48.120;11.488;2022-10-16T05:05:44;95455.41;;;18.58;60.76
1029;BME280;503;48.120;11.488;2022-10-16T05:08:10;95454.06;;;18.52;60.49
1029;BME280;503;48.120;11.488;2022-10-16T05:10:35;95453.41;;;18.55;60.90
1029;BME280;503;48.120;11.488;2022-10-16T05:13:00;95443.75;;;18.54;60.80
1029;BME280;503;48.120;11.488;2022-10-16T05:15:25;95451.13;;;18.57;60.43
1029;BME280;503;48.120;11.488;2022-10-16T05:17:54;95451.22;;;18.61;60.47
1029;BME280;503;48.120;11.488;2022-10-16T05:20:19;95458.16;;;18.62;60.37
1029;BME280;503;48.120;11.488;2022-10-16T05:22:45;95460.53;;;18.63;60.53
1029;BME280;503;48.120;11.488;2022-10-16T05:25:10;95462.78;;;18.61;60.03
1029;BME280;503;48.120;11.488;2022-10-16T05:27:35;95458.16;;;18.62;60.25
1029;BME280;503;48.120;11.488;2022-10-16T05:30:00;95444.97;;;18.57;60.38
1029;BME280;503;48.120;11.488;2022-10-16T05:32:26;95445.72;;;18.57;60.28
1029;BME280;503;48.120;11.488;2022-10-16T05:34:51;95464.94;;;18.56;59.95
1029;BME280;503;48.120;11.488;2022-10-16T05:37:16;95469.47;;;18.52;60.16
1029;BME280;503;48.120;11.488;2022-10-16T05:39:42;95468.25;;;18.49;60.39
1029;BME280;503;48.120;11.488;2022-10-16T05:42:07;95467.81;;;18.47;60.48
1029;BME280;503;48.120;11.488;2022-10-16T05:44:32;95483.19;;;18.47;60.68
1029;BME280;503;48.120;11.488;2022-10-16T05:46:57;95478.81;;;18.42;60.44
1029;BME280;503;48.120;11.488;2022-10-16T05:49:22;95477.63;;;18.39;60.62
1029;BME280;503;48.120;11.488;2022-10-16T05:51:48;95480.22;;;18.36;60.66
1029;BME280;503;48.120;11.488;2022-10-16T05:54:13;95482.03;;;18.32;60.68
1029;BME280;503;48.120;11.488;2022-10-16T05:56:38;95486.56;;;18.28;60.57
1029;BME280;503;48.120;11.488;2022-10-16T05:59:04;95484.00;;;18.19;60.87
1029;BME280;503;48.120;11.488;2022-10-16T06:01:29;95483.03;;;18.11;60.88
1029;BME280;503;48.120;11.488;2022-10-16T06:03:55;95487.09;;;18.05;60.97
1029;BME280;503;48.120;11.488;2022-10-16T06:06:22;95486.66;;;18.03;61.25
1029;BME280;503;48.120;11.488;2022-10-16T06:08:49;95488.81;;;17.98;61.30
1029;BME280;503;48.120;11.488;2022-10-16T06:11:17;95493.31;;;17.93;61.34
1029;BME280;503;48.120;11.488;2022-10-16T06:13:43;95497.44;;;17.91;61.48
1029;BME280;503;48.120;11.488;2022-10-16T06:16:11;95495.09;;;17.89;61.63
1029;BME280;503;48.120;11.488;2022-10-16T06:18:36;95500.38;;;17.86;61.73
1029;BME280;503;48.120;11.488;2022-10-16T06:21:06;95500.38;;;17.86;61.62
1029;BME280;503;48.120;11.488;2022-10-16T06:23:32;95505.44;;;17.87;61.87
1029;BME280;503;48.120;11.488;2022-10-16T06:26:04;95505.53;;;17.91;62.05
1029;BME280;503;48.120;11.488;2022-10-16T06:28:29;95504.50;;;17.96;61.75
1029;BME280;503;48.120;11.488;2022-10-16T06:31:01;95516.94;;;18.00;61.69
1029;BME280;503;48.120;11.488;2022-10-16T06:33:26;95521.19;;;18.01;61.85
1029;BME280;503;48.120;11.488;2022-10-16T06:35:51;95515.81;;;18.01;61.59
1029;BME280;503;48.120;11.488;2022-10-16T06:38:17;95524.69;;;18.02;61.60
1029;BME280;503;48.120;11.488;2022-10-16T06:40:42;95521.19;;;18.01;61.75
1029;BME280;503;48.120;11.488;2022-10-16T06:43:07;95525.78;;;18.01;61.52
1029;BME280;503;48.120;11.488;2022-10-16T06:45:32;95534.22;;;17.99;61.42
1029;BME280;503;48.120;11.488;2022-10-16T06:47:57;95534.22;;;17.99;61.69
1029;BME280;503;48.120;11.488;2022-10-16T06:50:23;95541.88;;;17.97;61.55
1029;BME280;503;48.120;11.488;2022-10-16T06:52:48;95536.47;;;17.97;61.99
1029;BME280;503;48.120;11.488;2022-10-16T06:55:13;95536.47;;;17.97;61.76
1029;BME280;503;48.120;11.488;2022-10-16T06:57:39;95548.47;;;18.00;61.78
1029;BME280;503;48.120;11.488;2022-10-16T07:00:05;95553.84;;;18.00;61.83
1029;BME280;503;48.120;11.488;2022-10-16T07:02:30;95545.53;;;18.05;61.77
1029;BME280;503;48.120;11.488;2022-10-16T07:04:55;95551.44;;;18.10;61.67
1029;BME280;503;48.120;11.488;2022-10-16T07:07:21;95549.66;;;18.14;61.54
1029;BME280;503;48.120;11.488;2022-10-16T07:09:49;95545.59;;;18.21;61.65
1029;BME280;503;48.120;11.488;2022-10-16T07:12:14;95559.25;;;18.28;61.46
1029;BME280;503;48.120;11.488;2022-10-16T07:14:39;95559.00;;;18.33;61.20
1029;BME280;503;48.120;11.488;2022-10-16T07:17:05;95554.06;;;18.35;60.94
1029;BME280;503;48.120;11.488;2022-10-16T07:19:30;95557.72;;;18.42;61.02
1029;BME280;503;48.120;11.488;2022-10-16T07:21:55;95568.25;;;18.48;60.95
1029;BME280;503;48.120;11.488;2022-10-16T07:24:21;95571.41;;;18.50;61.08
1029;BME280;503;48.120;11.488;2022-10-16T07:26:47;95564.63;;;18.56;60.97
1029;BME280;503;48.120;11.488;2022-10-16T07:29:14;95579.75;;;18.60;60.78
1029;BME280;503;48.120;11.488;2022-10-16T07:31:39;95573.34;;;18.65;60.84
1029;BME280;503;48.120;11.488;2022-10-16T07:34:05;95579.16;;;18.67;60.69
1029;BME280;503;48.120;11.488;2022-10-16T07:36:30;95581.72;;;18.76;60.75
1029;BME280;503;48.120;11.488;2022-10-16T07:38:55;95590.44;;;18.85;60.49
1029;BME280;503;48.120;11.488;2022-10-16T07:41:20;95589.94;;;18.95;60.58
1029;BME280;503;48.120;11.488;2022-10-16T07:43:46;95597.06;;;19.03;60.28
1029;BME280;503;48.120;11.488;2022-10-16T07:46:12;95592.19;;;19.09;59.86
1029;BME280;503;48.120;11.488;2022-10-16T07:48:37;95606.03;;;19.23;59.62
1029;BME280;503;48.120;11.488;2022-10-16T07:51:03;95599.34;;;19.33;59.31
1029;BME280;503;48.120;11.488;2022-10-16T07:53:29;95610.31;;;19.40;59.15
1029;BME280;503;48.120;11.488;2022-10-16T07:55:58;95610.50;;;19.47;58.92
1029;BME280;503;48.120;11.488;2022-10-16T07:58:23;95617.97;;;19.54;58.62
1029;BME280;503;48.120;11.488;2022-10-16T08:00:49;95616.31;;;19.65;58.42
1029;BME280;503;48.120;11.488;2022-10-16T08:03:14;95619.72;;;19.78;58.25
1029;BME280;503;48.120;11.488;2022-10-16T08:05:39;95615.34;;;19.89;57.80
1029;BME280;503;48.120;11.488;2022-10-16T08:08:04;95610.25;;;20.03;57.55
1029;BME280;503;48.120;11.488;2022-10-16T08:10:30;95617.03;;;20.13;57.36
1029;BME280;503;48.120;11.488;2022-10-16T08:12:56;95619.31;;;20.30;56.99
1029;BME280;503;48.120;11.488;2022-10-16T08:15:21;95614.19;;;20.44;56.73
1029;BME280;503;48.120;11.488;2022-10-16T08:17:57;95614.44;;;20.55;56.48
1029;BME280;503;48.120;11.488;2022-10-16T08:20:22;95620.13;;;20.69;56.17
1029;BME280;503;48.120;11.488;2022-10-16T08:22:48;95620.25;;;20.76;55.58
1029;BME280;503;48.120;11.488;2022-10-16T08:25:13;95621.19;;;20.84;55.11
1029;BME280;503;48.120;11.488;2022-10-16T08:27:38;95621.38;;;20.95;55.70
1029;BME280;503;48.120;11.488;2022-10-16T08:30:03;95625.38;;;21.24;55.34
1029;BME280;503;48.120;11.488;2022-10-16T08:32:29;95624.56;;;21.43;54.47
1029;BME280;503;48.120;11.488;2022-10-16T08:34:54;95625.50;;;21.54;53.86
1029;BME280;503;48.120;11.488;2022-10-16T08:37:19;95626.97;;;21.71;53.99
1029;BME280;503;48.120;11.488;2022-10-16T08:39:44;95627.66;;;21.91;53.48
1029;BME280;503;48.120;11.488;2022-10-16T08:42:11;95629.66;;;21.97;52.52
1029;BME280;503;48.120;11.488;2022-10-16T08:47:22;95636.44;;;22.11;51.57
1029;BME280;503;48.120;11.488;2022-10-16T08:49:56;95642.75;;;21.92;50.87
1029;BME280;503;48.120;11.488;2022-10-16T08:52:22;95643.81;;;22.40;50.97
1029;BME280;503;48.120;11.488;2022-10-16T08:54:51;95654.16;;;22.61;50.76
1029;BME280;503;48.120;11.488;2022-10-16T08:57:20;95650.00;;;22.71;50.24
1029;BME280;503;48.120;11.488;2022-10-16T08:59:45;95646.25;;;22.79;49.88
1029;BME280;503;48.120;11.488;2022-10-16T09:04:52;95653.13;;;23.03;49.88
1029;BME280;503;48.120;11.488;2022-10-16T09:07:29;95652.09;;;23.18;49.75
1029;BME280;503;48.120;11.488;2022-10-16T09:10:06;95653.59;;;23.12;49.16
1029;BME280;503;48.120;11.488;2022-10-16T09:15:29;95658.41;;;23.26;47.95
1029;BME280;503;48.120;11.488;2022-10-16T09:18:01;95655.72;;;23.29;47.39
1029;BME280;503;48.120;11.488;2022-10-16T09:25:48;95652.09;;;23.15;46.02
1029;BME280;503;48.120;11.488;2022-10-16T09:28:14;95659.56;;;23.25;45.84
1029;BME280;503;48.120;11.488;2022-10-16T09:30:39;95653.03;;;23.29;45.48
1029;BME280;503;48.120;11.488;2022-10-16T09:33:05;95660.88;;;23.42;45.61
1029;BME280;503;48.120;11.488;2022-10-16T09:37:58;95654.38;;;23.53;45.28
1029;BME280;503;48.120;11.488;2022-10-16T09:40:28;95659.13;;;23.60;47.67
1029;BME280;503;48.120;11.488;2022-10-16T09:45:38;95661.75;;;23.97;46.74
1029;BME280;503;48.120;11.488;2022-10-16T09:48:11;95671.06;;;24.00;45.39
1029;BME280;503;48.120;11.488;2022-10-16T09:50:36;95668.78;;;24.05;45.46
1029;BME280;503;48.120;11.488;2022-10-16T09:53:10;95670.00;;;24.11;45.77
1029;BME280;503;48.120;11.488;2022-10-16T09:55:36;95679.78;;;24.23;45.42
1029;BME280;503;48.120;11.488;2022-10-16T09:58:01;95678.69;;;24.31;44.55
1029;BME280;503;48.120;11.488;2022-10-16T10:00:26;95681.84;;;24.41;44.50
1029;BME280;503;48.120;11.488;2022-10-16T10:02:52;95678.78;;;24.46;44.86
1029;BME280;503;48.120;11.488;2022-10-16T10:07:52;95672.97;;;24.51;43.46
1029;BME280;503;48.120;11.488;2022-10-16T10:10:19;95672.28;;;24.64;42.86
1029;BME280;503;48.120;11.488;2022-10-16T10:12:45;95666.47;;;24.70;42.22
1029;BME280;503;48.120;11.488;2022-10-16T10:15:11;95669.22;;;24.77;43.57
1029;BME280;503;48.120;11.488;2022-10-16T10:17:47;95674.28;;;24.78;42.32
1029;BME280;503;48.120;11.488;2022-10-16T10:22:50;95672.38;;;24.86;42.78
1029;BME280;503;48.120;11.488;2022-10-16T10:25:20;95682.13;;;24.94;41.75
1029;BME280;503;48.120;11.488;2022-10-16T10:30:29;95679.84;;;25.07;42.17
1029;BME280;503;48.120;11.488;2022-10-16T10:33:18;95677.94;;;25.14;41.00
1029;BME280;503;48.120;11.488;2022-10-16T10:41:08;95673.31;;;25.44;41.38
1029;BME280;503;48.120;11.488;2022-10-16T10:46:09;95678.78;;;25.58;40.10
1029;BME280;503;48.120;11.488;2022-10-16T10:51:23;95675.84;;;24.86;39.67
1029;BME280;503;48.120;11.488;2022-10-16T10:53:55;95680.91;;;24.84;40.06
1029;BME280;503;48.120;11.488;2022-10-16T10:59:07;95683.06;;;25.52;40.13
1029;BME280;503;48.120;11.488;2022-10-16T11:04:15;95672.59;;;25.79;39.35
1029;BME280;503;48.120;11.488;2022-10-16T11:06:52;95671.81;;;25.71;38.80
1029;BME280;503;48.120;11.488;2022-10-16T11:09:21;95674.97;;;25.80;39.81
1029;BME280;503;48.120;11.488;2022-10-16T11:11:54;95668.34;;;25.81;39.57
1029;BME280;503;48.120;11.488;2022-10-16T11:14:33;95670.22;;;25.63;36.42
1029;BME280;503;48.120;11.488;2022-10-16T11:17:04;95673.34;;;25.47;36.57
1029;BME280;503;48.120;11.488;2022-10-16T11:22:19;95672.50;;;25.14;35.82
1029;BME280;503;48.120;11.488;2022-10-16T11:25:00;95673.00;;;25.95;38.19
1029;BME280;503;48.120;11.488;2022-10-16T11:27:41;95678.78;;;25.47;36.17
1029;BME280;503;48.120;11.488;2022-10-16T11:30:13;95667.09;;;25.54;35.66
1029;BME280;503;48.120;11.488;2022-10-16T11:32:45;95678.78;;;25.51;35.83
1029;BME280;503;48.120;11.488;2022-10-16T11:35:17;95671.81;;;26.00;35.75
1029;BME280;503;48.120;11.488;2022-10-16T11:37:44;95676.28;;;24.96;34.80
1029;BME280;503;48.120;11.488;2022-10-16T11:42:44;95661.72;;;25.93;35.24
1029;BME280;503;48.120;11.488;2022-10-16T11:45:26;95661.72;;;25.82;34.68
1029;BME280;503;48.120;11.488;2022-10-16T11:48:39;95678.03;;;25.61;34.75
1029;BME280;503;48.120;11.488;2022-10-16T11:55:38;95672.19;;;26.52;34.34
1029;BME280;503;48.120;11.488;2022-10-16T11:58:15;95664.41;;;26.22;34.87
1029;BME280;503;48.120;11.488;2022-10-16T12:00:47;95667.81;;;26.65;34.86
1029;BME280;503;48.120;11.488;2022-10-16T12:08:28;95671.38;;;26.51;33.50
1029;BME280;503;48.120;11.488;2022-10-16T12:11:03;95666.25;;;26.71;33.81
1029;BME280;503;48.120;11.488;2022-10-16T12:13:31;95667.00;;;26.72;34.37
1029;BME280;503;48.120;11.488;2022-10-16T12:16:07;95664.69;;;26.70;35.47
1029;BME280;503;48.120;11.488;2022-10-16T12:18:44;95675.69;;;26.49;34.93
1029;BME280;503;48.120;11.488;2022-10-16T12:21:10;95669.50;;;26.02;35.17
1029;BME280;503;48.120;11.488;2022-10-16T12:23:51;95664.00;;;26.37;34.02
1029;BME280;503;48.120;11.488;2022-10-16T12:26:27;95665.19;;;26.22;32.36
1029;BME280;503;48.120;11.488;2022-10-16T12:28:54;95659.25;;;26.70;33.60
1029;BME280;503;48.120;11.488;2022-10-16T12:31:20;95658.78;;;26.86;33.57
1029;BME280;503;48.120;11.488;2022-10-16T12:33:53;95662.69;;;26.81;33.80
1029;BME280;503;48.120;11.488;2022-10-16T12:36:28;95654.81;;;27.01;34.09
1029;BME280;503;48.120;11.488;2022-10-16T12:38:54;95661.50;;;26.93;34.74
1029;BME280;503;48.120;11.488;2022-10-16T12:43:51;95664.72;;;26.56;33.23
1029;BME280;503;48.120;11.488;2022-10-16T12:48:42;95656.59;;;26.45;33.40
1029;BME280;503;48.120;11.488;2022-10-16T12:51:21;95649.81;;;26.82;33.96
1029;BME280;503;48.120;11.488;2022-10-16T12:53:57;95648.97;;;27.03;32.94
1029;BME280;503;48.120;11.488;2022-10-16T12:56:24;95645.81;;;27.11;32.95
1029;BME280;503;48.120;11.488;2022-10-16T12:58:58;95650.88;;;27.06;32.98
1029;BME280;503;48.120;11.488;2022-10-16T13:04:03;95650.38;;;26.27;32.91
1029;BME280;503;48.120;11.488;2022-10-16T13:14:22;95647.41;;;27.02;31.61
1029;BME280;503;48.120;11.488;2022-10-16T13:17:11;95652.97;;;26.80;30.54
1029;BME280;503;48.120;11.488;2022-10-16T13:19:44;95651.13;;;26.38;31.23
1029;BME280;503;48.120;11.488;2022-10-16T13:27:20;95665.16;;;25.44;31.60
1029;BME280;503;48.120;11.488;2022-10-16T13:29:52;95660.13;;;25.74;31.41
1029;BME280;503;48.120;11.488;2022-10-16T13:32:18;95663.97;;;26.41;30.79
1029;BME280;503;48.120;11.488;2022-10-16T13:34:45;95666.31;;;26.46;30.04
1029;BME280;503;48.120;11.488;2022-10-16T13:37:18;95659.84;;;27.06;29.98
1029;BME280;503;48.120;11.488;2022-10-16T13:39:44;95661.03;;;27.02;29.69
1029;BME280;503;48.120;11.488;2022-10-16T13:42:28;95663.97;;;26.30;31.02
1029;BME280;503;48.120;11.488;2022-10-16T13:44:54;95655.81;;;26.34;30.67
1029;BME280;503;48.120;11.488;2022-10-16T13:47:21;95662.44;;;26.36;31.27
1029;BME280;503;48.120;11.488;2022-10-16T13:49:46;95662.84;;;26.21;31.60
1029;BME280;503;48.120;11.488;2022-10-16T13:52:17;95670.28;;;26.06;31.80
1029;BME280;503;48.120;11.488;2022-10-16T13:54:42;95676.88;;;26.19;31.62
1029;BME280;503;48.120;11.488;2022-10-16T13:57:07;95677.88;;;26.89;30.99
1029;BME280;503;48.120;11.488;2022-10-16T13:59:33;95678.00;;;26.54;32.26
1029;BME280;503;48.120;11.488;2022-10-16T14:01:59;95682.72;;;26.17;31.42
1029;BME280;503;48.120;11.488;2022-10-16T14:04:27;95676.44;;;26.46;31.12
1029;BME280;503;48.120;11.488;2022-10-16T14:06:54;95677.59;;;26.59;30.96
1029;BME280;503;48.120;11.488;2022-10-16T14:11:52;95680.25;;;26.87;30.45
1029;BME280;503;48.120;11.488;2022-10-16T14:14:18;95677.97;;;26.68;30.51
1029;BME280;503;48.120;11.488;2022-10-16T14:16:44;95677.00;;;27.07;30.47
1029;BME280;503;48.120;11.488;2022-10-16T14:19:22;95685.63;;;27.02;30.18
1029;BME280;503;48.120;11.488;2022-10-16T14:21:48;95684.13;;;26.86;30.54
1029;BME280;503;48.120;11.488;2022-10-16T14:26:54;95676.56;;;27.26;29.89
1029;BME280;503;48.120;11.488;2022-10-16T14:29:21;95676.91;;;27.35;30.03
1029;BME280;503;48.120;11.488;2022-10-16T14:32:00;95683.19;;;27.25;30.66
1029;BME280;503;48.120;11.488;2022-10-16T14:34:33;95676.19;;;27.24;30.36
1029;BME280;503;48.120;11.488;2022-10-16T14:36:59;95683.28;;;27.11;30.38
1029;BME280;503;48.120;11.488;2022-10-16T14:39:27;95679.50;;;26.73;31.09
1029;BME280;503;48.120;11.488;2022-10-16T14:41:54;95687.94;;;27.07;30.43
1029;BME280;503;48.120;11.488;2022-10-16T14:44:20;95685.34;;;26.71;31.46
1029;BME280;503;48.120;11.488;2022-10-16T14:46:47;95681.75;;;26.99;30.68
1029;BME280;503;48.120;11.488;2022-10-16T14:49:15;95684.22;;;26.51;31.03
1029;BME280;503;48.120;11.488;2022-10-16T14:51:42;95682.97;;;26.84;30.15
1029;BME280;503;48.120;11.488;2022-10-16T14:54:09;95685.25;;;26.96;30.10
1029;BME280;503;48.120;11.488;2022-10-16T14:56:41;95689.56;;;26.93;30.10
1029;BME280;503;48.120;11.488;2022-10-16T14:59:08;95690.34;;;26.90;30.14
1029;BME280;503;48.120;11.488;2022-10-16T15:01:38;95683.75;;;26.84;30.50
1029;BME280;503;48.120;11.488;2022-10-16T15:04:03;95687.66;;;26.76;30.58